sensor_id;sensor_type;location;lat;lon;timestamp;P1;durP1;ratioP1;P2;durP2;ratioP2
32637;SDS011;19045;52.268;10.506;2022-07-19T00:02:22;15.68;;;4.63;;
32637;SDS011;19045;52.268;10.506;2022-07-19T00:04:48;15.60;;;4.40;;
32637;SDS011;19045;52.268;10.506;2022-07-19T00:07:15;12.85;;;3.80;;
32637;SDS011;19045;52.268;10.506;2022-07-19T00:09:42;8.95;;;3.63;;
32637;SDS011;19045;52.268;10.506;2022-07-19T00:12:08;11.60;;;4.13;;
32637;SDS011;19045;52.268;10.506;2022-07-19T00:14:39;11.65;;;3.90;;
32637;SDS011;19045;52.268;10.506;2022-07-19T00:17:05;9.52;;;4.20;;
32637;SDS011;19045;52.268;10.506;2022-07-19T00:19:32;10.88;;;3.97;;
32637;SDS011;19045;52.268;10.506;2022-07-19T00:21:59;8.93;;;3.60;;
32637;SDS011;19045;52.268;10.506;2022-07-19T00:24:25;5.32;;;3.25;;
32637;SDS011;19045;52.268;10.506;2022-07-19T00:26:52;9.30;;;3.70;;
32637;SDS011;19045;52.268;10.506;2022-07-19T00:29:19;7.43;;;3.65;;
32637;SDS011;19045;52.268;10.506;2022-07-19T00:31:47;12.85;;;3.83;;
32637;SDS011;19045;52.268;10.506;2022-07-19T00:34:14;7.72;;;3.67;;
32637;SDS011;19045;52.268;10.506;2022-07-19T00:36:40;12.90;;;3.80;;
32637;SDS011;19045;52.268;10.506;2022-07-19T00:39:07;10.00;;;3.75;;
32637;SDS011;19045;52.268;10.506;2022-07-19T00:41:38;12.15;;;3.58;;
32637;SDS011;19045;52.268;10.506;2022-07-19T00:44:06;8.65;;;3.55;;
32637;SDS011;19045;52.268;10.506;2022-07-19T00:46:33;12.38;;;3.72;;
32637;SDS011;19045;52.268;10.506;2022-07-19T00:49:02;9.80;;;3.80;;
32637;SDS011;19045;52.268;10.506;2022-07-19T00:51:29;6.90;;;3.50;;
32637;SDS011;19045;52.268;10.506;2022-07-19T00:54:00;16.25;;;4.07;;
32637;SDS011;19045;52.268;10.506;2022-07-19T00:56:27;11.30;;;3.70;;
32637;SDS011;19045;52.268;10.506;2022-07-19T00:58:59;6.33;;;3.33;;
32637;SDS011;19045;52.268;10.506;2022-07-19T01:01:28;6.15;;;2.92;;
32637;SDS011;19045;52.268;10.506;2022-07-19T01:03:55;11.10;;;3.75;;
32637;SDS011;19045;52.268;10.506;2022-07-19T01:06:24;9.85;;;3.50;;
32637;SDS011;19045;52.268;10.506;2022-07-19T01:08:51;9.75;;;3.53;;
32637;SDS011;19045;52.268;10.506;2022-07-19T01:11:18;9.65;;;3.75;;
32637;SDS011;19045;52.268;10.506;2022-07-19T01:13:45;9.38;;;3.05;;
32637;SDS011;19045;52.268;10.506;2022-07-19T01:16:13;6.68;;;3.35;;
32637;SDS011;19045;52.268;10.506;2022-07-19T01:18:40;7.38;;;3.30;;
32637;SDS011;19045;52.268;10.506;2022-07-19T01:21:06;8.55;;;3.90;;
32637;SDS011;19045;52.268;10.506;2022-07-19T01:23:35;7.93;;;3.45;;
32637;SDS011;19045;52.268;10.506;2022-07-19T01:26:01;11.65;;;3.58;;
32637;SDS011;19045;52.268;10.506;2022-07-19T01:28:28;8.85;;;3.42;;
32637;SDS011;19045;52.268;10.506;2022-07-19T01:30:55;20.17;;;3.70;;
32637;SDS011;19045;52.268;10.506;2022-07-19T01:33:21;11.63;;;4.28;;
32637;SDS011;19045;52.268;10.506;2022-07-19T01:35:48;10.10;;;3.63;;
32637;SDS011;19045;52.268;10.506;2022-07-19T01:38:15;6.53;;;3.35;;
32637;SDS011;19045;52.268;10.506;2022-07-19T01:40:43;8.57;;;3.05;;
32637;SDS011;19045;52.268;10.506;2022-07-19T01:43:09;6.93;;;2.75;;
32637;SDS011;19045;52.268;10.506;2022-07-19T01:45:36;9.80;;;3.25;;
32637;SDS011;19045;52.268;10.506;2022-07-19T01:48:03;9.30;;;3.25;;
32637;SDS011;19045;52.268;10.506;2022-07-19T01:50:31;10.02;;;3.00;;
32637;SDS011;19045;52.268;10.506;2022-07-19T01:52:57;9.20;;;3.50;;
32637;SDS011;19045;52.268;10.506;2022-07-19T01:55:24;8.73;;;3.55;;
32637;SDS011;19045;52.268;10.506;2022-07-19T01:57:52;10.00;;;3.47;;
32637;SDS011;19045;52.268;10.506;2022-07-19T02:00:19;10.60;;;3.47;;
32637;SDS011;19045;52.268;10.506;2022-07-19T02:02:46;13.82;;;3.17;;
32637;SDS011;19045;52.268;10.506;2022-07-19T02:05:12;10.25;;;3.05;;
32637;SDS011;19045;52.268;10.506;2022-07-19T02:07:39;9.23;;;3.30;;
32637;SDS011;19045;52.268;10.506;2022-07-19T02:10:06;12.52;;;3.72;;
32637;SDS011;19045;52.268;10.506;2022-07-19T02:12:34;12.45;;;3.33;;
32637;SDS011;19045;52.268;10.506;2022-07-19T02:15:02;12.18;;;3.75;;
32637;SDS011;19045;52.268;10.506;2022-07-19T02:17:30;11.98;;;3.90;;
32637;SDS011;19045;52.268;10.506;2022-07-19T02:19:57;12.63;;;3.53;;
32637;SDS011;19045;52.268;10.506;2022-07-19T02:22:23;12.00;;;3.60;;
32637;SDS011;19045;52.268;10.506;2022-07-19T02:24:50;11.27;;;3.47;;
32637;SDS011;19045;52.268;10.506;2022-07-19T02:27:17;9.80;;;3.22;;
32637;SDS011;19045;52.268;10.506;2022-07-19T02:29:44;7.95;;;3.28;;
32637;SDS011;19045;52.268;10.506;2022-07-19T02:32:13;10.27;;;3.00;;
32637;SDS011;19045;52.268;10.506;2022-07-19T02:34:39;11.88;;;3.47;;
32637;SDS011;19045;52.268;10.506;2022-07-19T02:37:06;5.43;;;2.75;;
32637;SDS011;19045;52.268;10.506;2022-07-19T02:39:33;5.15;;;3.03;;
32637;SDS011;19045;52.268;10.506;2022-07-19T02:41:59;27.15;;;3.53;;
32637;SDS011;19045;52.268;10.506;2022-07-19T02:44:26;8.02;;;2.95;;
32637;SDS011;19045;52.268;10.506;2022-07-19T02:46:53;9.82;;;2.95;;
32637;SDS011;19045;52.268;10.506;2022-07-19T02:49:21;9.48;;;3.22;;
32637;SDS011;19045;52.268;10.506;2022-07-19T02:51:48;14.60;;;3.67;;
32637;SDS011;19045;52.268;10.506;2022-07-19T02:54:14;9.23;;;3.67;;
32637;SDS011;19045;52.268;10.506;2022-07-19T02:56:41;10.73;;;3.58;;
32637;SDS011;19045;52.268;10.506;2022-07-19T02:59:08;12.23;;;3.47;;
32637;SDS011;19045;52.268;10.506;2022-07-19T03:01:35;11.18;;;3.30;;
32637;SDS011;19045;52.268;10.506;2022-07-19T03:04:01;8.32;;;3.13;;
32637;SDS011;19045;52.268;10.506;2022-07-19T03:06:30;8.63;;;2.65;;
32637;SDS011;19045;52.268;10.506;2022-07-19T03:08:57;10.73;;;3.42;;
32637;SDS011;19045;52.268;10.506;2022-07-19T03:11:23;8.32;;;3.10;;
32637;SDS011;19045;52.268;10.506;2022-07-19T03:13:50;5.55;;;2.95;;
32637;SDS011;19045;52.268;10.506;2022-07-19T03:16:17;8.40;;;3.25;;
32637;SDS011;19045;52.268;10.506;2022-07-19T03:18:43;5.05;;;3.10;;
32637;SDS011;19045;52.268;10.506;2022-07-19T03:21:10;11.50;;;3.15;;
32637;SDS011;19045;52.268;10.506;2022-07-19T03:23:38;7.47;;;3.33;;
32637;SDS011;19045;52.268;10.506;2022-07-19T03:26:05;5.93;;;3.08;;
32637;SDS011;19045;52.268;10.506;2022-07-19T03:28:32;11.80;;;2.60;;
32637;SDS011;19045;52.268;10.506;2022-07-19T03:30:59;8.90;;;3.25;;
32637;SDS011;19045;52.268;10.506;2022-07-19T03:33:26;11.13;;;3.42;;
32637;SDS011;19045;52.268;10.506;2022-07-19T03:35:52;7.22;;;2.97;;
32637;SDS011;19045;52.268;10.506;2022-07-19T03:38:19;5.68;;;3.08;;
32637;SDS011;19045;52.268;10.506;2022-07-19T03:40:47;7.18;;;2.88;;
32637;SDS011;19045;52.268;10.506;2022-07-19T03:43:14;11.25;;;3.22;;
32637;SDS011;19045;52.268;10.506;2022-07-19T03:45:41;6.15;;;2.88;;
32637;SDS011;19045;52.268;10.506;2022-07-19T03:48:08;8.95;;;3.13;;
32637;SDS011;19045;52.268;10.506;2022-07-19T03:50:35;6.63;;;3.35;;
32637;SDS011;19045;52.268;10.506;2022-07-19T03:53:03;22.65;;;3.15;;
32637;SDS011;19045;52.268;10.506;2022-07-19T03:55:30;18.48;;;3.55;;
32637;SDS011;19045;52.268;10.506;2022-07-19T03:57:58;6.68;;;2.97;;
32637;SDS011;19045;52.268;10.506;2022-07-19T04:00:25;4.50;;;2.80;;
32637;SDS011;19045;52.268;10.506;2022-07-19T04:02:52;10.52;;;3.70;;
32637;SDS011;19045;52.268;10.506;2022-07-19T04:05:18;6.85;;;2.75;;
32637;SDS011;19045;52.268;10.506;2022-07-19T04:07:45;7.80;;;2.97;;
32637;SDS011;19045;52.268;10.506;2022-07-19T04:10:12;9.75;;;3.47;;
32637;SDS011;19045;52.268;10.506;2022-07-19T04:12:38;6.93;;;3.25;;
32637;SDS011;19045;52.268;10.506;2022-07-19T04:15:07;9.55;;;3.03;;
32637;SDS011;19045;52.268;10.506;2022-07-19T04:17:35;12.00;;;3.15;;
32637;SDS011;19045;52.268;10.506;2022-07-19T04:20:02;7.18;;;2.92;;
32637;SDS011;19045;52.268;10.506;2022-07-19T04:22:30;11.77;;;3.42;;
32637;SDS011;19045;52.268;10.506;2022-07-19T04:24:56;7.43;;;2.90;;
32637;SDS011;19045;52.268;10.506;2022-07-19T04:27:23;16.70;;;3.90;;
32637;SDS011;19045;52.268;10.506;2022-07-19T04:29:50;10.52;;;3.30;;
32637;SDS011;19045;52.268;10.506;2022-07-19T04:32:18;10.68;;;3.53;;
32637;SDS011;19045;52.268;10.506;2022-07-19T04:34:45;8.40;;;3.38;;
32637;SDS011;19045;52.268;10.506;2022-07-19T04:37:12;8.98;;;3.05;;
32637;SDS011;19045;52.268;10.506;2022-07-19T04:39:39;6.80;;;3.13;;
32637;SDS011;19045;52.268;10.506;2022-07-19T04:42:05;4.07;;;2.80;;
32637;SDS011;19045;52.268;10.506;2022-07-19T04:44:32;6.68;;;3.30;;
32637;SDS011;19045;52.268;10.506;2022-07-19T04:46:59;7.43;;;3.10;;
32637;SDS011;19045;52.268;10.506;2022-07-19T04:49:28;14.90;;;3.97;;
32637;SDS011;19045;52.268;10.506;2022-07-19T04:51:55;9.90;;;3.55;;
32637;SDS011;19045;52.268;10.506;2022-07-19T04:54:23;9.32;;;3.70;;
32637;SDS011;19045;52.268;10.506;2022-07-19T04:56:50;8.65;;;3.40;;
32637;SDS011;19045;52.268;10.506;2022-07-19T04:59:17;9.48;;;2.78;;
32637;SDS011;19045;52.268;10.506;2022-07-19T05:01:44;12.05;;;4.00;;
32637;SDS011;19045;52.268;10.506;2022-07-19T05:04:11;8.10;;;3.08;;
32637;SDS011;19045;52.268;10.506;2022-07-19T05:06:39;11.02;;;3.53;;
32637;SDS011;19045;52.268;10.506;2022-07-19T05:09:08;8.45;;;3.78;;
32637;SDS011;19045;52.268;10.506;2022-07-19T05:11:35;8.35;;;3.30;;
32637;SDS011;19045;52.268;10.506;2022-07-19T05:14:02;10.93;;;3.40;;
32637;SDS011;19045;52.268;10.506;2022-07-19T05:16:29;5.25;;;2.88;;
32637;SDS011;19045;52.268;10.506;2022-07-19T05:18:56;6.95;;;3.13;;
32637;SDS011;19045;52.268;10.506;2022-07-19T05:21:23;7.20;;;3.10;;
32637;SDS011;19045;52.268;10.506;2022-07-19T05:23:51;6.57;;;3.25;;
32637;SDS011;19045;52.268;10.506;2022-07-19T05:26:18;11.07;;;3.15;;
32637;SDS011;19045;52.268;10.506;2022-07-19T05:28:48;8.15;;;3.08;;
32637;SDS011;19045;52.268;10.506;2022-07-19T05:31:15;7.65;;;3.22;;
32637;SDS011;19045;52.268;10.506;2022-07-19T05:33:42;8.10;;;2.92;;
32637;SDS011;19045;52.268;10.506;2022-07-19T05:36:09;8.73;;;2.78;;
32637;SDS011;19045;52.268;10.506;2022-07-19T05:38:37;8.38;;;2.67;;
32637;SDS011;19045;52.268;10.506;2022-07-19T05:41:05;6.40;;;2.97;;
32637;SDS011;19045;52.268;10.506;2022-07-19T05:43:34;8.18;;;3.15;;
32637;SDS011;19045;52.268;10.506;2022-07-19T05:46:01;5.22;;;2.80;;
32637;SDS011;19045;52.268;10.506;2022-07-19T05:48:27;9.43;;;3.08;;
32637;SDS011;19045;52.268;10.506;2022-07-19T05:50:54;5.85;;;3.20;;
32637;SDS011;19045;52.268;10.506;2022-07-19T05:53:21;6.82;;;2.83;;
32637;SDS011;19045;52.268;10.506;2022-07-19T05:55:48;7.78;;;2.95;;
32637;SDS011;19045;52.268;10.506;2022-07-19T05:58:16;6.65;;;2.75;;
32637;SDS011;19045;52.268;10.506;2022-07-19T06:00:43;8.07;;;3.05;;
32637;SDS011;19045;52.268;10.506;2022-07-19T06:03:31;7.32;;;2.85;;
32637;SDS011;19045;52.268;10.506;2022-07-19T06:05:58;8.60;;;2.88;;
32637;SDS011;19045;52.268;10.506;2022-07-19T06:08:25;6.63;;;3.38;;
32637;SDS011;19045;52.268;10.506;2022-07-19T06:10:52;6.88;;;2.78;;
32637;SDS011;19045;52.268;10.506;2022-07-19T06:13:20;7.75;;;2.47;;
32637;SDS011;19045;52.268;10.506;2022-07-19T06:15:48;8.63;;;3.15;;
32637;SDS011;19045;52.268;10.506;2022-07-19T06:18:15;7.13;;;2.90;;
32637;SDS011;19045;52.268;10.506;2022-07-19T06:20:42;11.90;;;3.13;;
32637;SDS011;19045;52.268;10.506;2022-07-19T06:23:09;7.28;;;2.80;;
32637;SDS011;19045;52.268;10.506;2022-07-19T06:25:35;11.90;;;2.90;;
32637;SDS011;19045;52.268;10.506;2022-07-19T06:28:03;8.82;;;2.80;;
32637;SDS011;19045;52.268;10.506;2022-07-19T06:30:31;9.38;;;2.80;;
32637;SDS011;19045;52.268;10.506;2022-07-19T06:32:58;11.70;;;3.00;;
32637;SDS011;19045;52.268;10.506;2022-07-19T06:35:24;8.90;;;2.95;;
32637;SDS011;19045;52.268;10.506;2022-07-19T06:37:51;4.38;;;2.53;;
32637;SDS011;19045;52.268;10.506;2022-07-19T06:40:18;8.10;;;3.08;;
32637;SDS011;19045;52.268;10.506;2022-07-19T06:42:44;8.07;;;2.58;;
32637;SDS011;19045;52.268;10.506;2022-07-19T06:45:11;5.43;;;2.85;;
32637;SDS011;19045;52.268;10.506;2022-07-19T06:47:39;6.60;;;2.30;;
32637;SDS011;19045;52.268;10.506;2022-07-19T06:50:06;9.65;;;2.58;;
32637;SDS011;19045;52.268;10.506;2022-07-19T06:52:33;6.53;;;2.88;;
32637;SDS011;19045;52.268;10.506;2022-07-19T06:55:00;10.70;;;2.60;;
32637;SDS011;19045;52.268;10.506;2022-07-19T06:57:26;8.68;;;2.55;;
32637;SDS011;19045;52.268;10.506;2022-07-19T06:59:53;11.80;;;4.20;;
32637;SDS011;19045;52.268;10.506;2022-07-19T07:02:22;6.28;;;3.53;;
32637;SDS011;19045;52.268;10.506;2022-07-19T07:04:50;6.60;;;3.30;;
32637;SDS011;19045;52.268;10.506;2022-07-19T07:07:17;4.75;;;3.15;;
32637;SDS011;19045;52.268;10.506;2022-07-19T07:09:44;11.35;;;3.15;;
32637;SDS011;19045;52.268;10.506;2022-07-19T07:12:10;6.80;;;2.75;;
32637;SDS011;19045;52.268;10.506;2022-07-19T07:14:37;8.32;;;2.53;;
32637;SDS011;19045;52.268;10.506;2022-07-19T07:17:04;6.40;;;2.60;;
32637;SDS011;19045;52.268;10.506;2022-07-19T07:19:30;9.02;;;2.70;;
32637;SDS011;19045;52.268;10.506;2022-07-19T07:21:58;6.85;;;2.63;;
32637;SDS011;19045;52.268;10.506;2022-07-19T07:24:26;4.75;;;2.30;;
32637;SDS011;19045;52.268;10.506;2022-07-19T07:26:53;5.53;;;2.78;;
32637;SDS011;19045;52.268;10.506;2022-07-19T07:29:20;7.82;;;2.35;;
32637;SDS011;19045;52.268;10.506;2022-07-19T07:31:47;9.40;;;2.25;;
32637;SDS011;19045;52.268;10.506;2022-07-19T07:34:14;7.88;;;2.72;;
32637;SDS011;19045;52.268;10.506;2022-07-19T07:36:40;4.90;;;2.00;;
32637;SDS011;19045;52.268;10.506;2022-07-19T07:39:10;6.40;;;2.85;;
32637;SDS011;19045;52.268;10.506;2022-07-19T07:41:37;10.35;;;2.92;;
32637;SDS011;19045;52.268;10.506;2022-07-19T07:44:04;6.68;;;2.22;;
32637;SDS011;19045;52.268;10.506;2022-07-19T07:46:31;9.30;;;2.28;;
32637;SDS011;19045;52.268;10.506;2022-07-19T07:48:58;4.35;;;2.35;;
32637;SDS011;19045;52.268;10.506;2022-07-19T07:51:25;5.28;;;2.55;;
32637;SDS011;19045;52.268;10.506;2022-07-19T07:53:51;8.30;;;2.10;;
32637;SDS011;19045;52.268;10.506;2022-07-19T07:56:20;5.45;;;2.40;;
32637;SDS011;19045;52.268;10.506;2022-07-19T07:58:47;5.43;;;2.50;;
32637;SDS011;19045;52.268;10.506;2022-07-19T08:01:13;6.03;;;2.28;;
32637;SDS011;19045;52.268;10.506;2022-07-19T08:03:41;7.63;;;2.25;;
32637;SDS011;19045;52.268;10.506;2022-07-19T08:06:07;9.88;;;2.58;;
32637;SDS011;19045;52.268;10.506;2022-07-19T08:08:36;9.55;;;2.28;;
32637;SDS011;19045;52.268;10.506;2022-07-19T08:11:03;5.63;;;2.30;;
32637;SDS011;19045;52.268;10.506;2022-07-19T08:13:31;4.47;;;2.50;;
32637;SDS011;19045;52.268;10.506;2022-07-19T08:15:58;5.80;;;2.63;;
32637;SDS011;19045;52.268;10.506;2022-07-19T08:18:24;10.50;;;3.03;;
32637;SDS011;19045;52.268;10.506;2022-07-19T08:20:51;7.32;;;2.25;;
32637;SDS011;19045;52.268;10.506;2022-07-19T08:23:18;5.57;;;2.05;;
32637;SDS011;19045;52.268;10.506;2022-07-19T08:25:44;6.57;;;2.85;;
32637;SDS011;19045;52.268;10.506;2022-07-19T08:28:11;6.35;;;2.65;;
32637;SDS011;19045;52.268;10.506;2022-07-19T08:30:39;6.05;;;2.40;;
32637;SDS011;19045;52.268;10.506;2022-07-19T08:33:06;5.35;;;2.40;;
32637;SDS011;19045;52.268;10.506;2022-07-19T08:35:34;7.85;;;2.58;;
32637;SDS011;19045;52.268;10.506;2022-07-19T08:38:00;4.90;;;2.45;;
32637;SDS011;19045;52.268;10.506;2022-07-19T08:40:27;10.77;;;2.75;;
32637;SDS011;19045;52.268;10.506;2022-07-19T08:42:54;5.00;;;1.92;;
32637;SDS011;19045;52.268;10.506;2022-07-19T08:45:24;8.90;;;2.20;;
32637;SDS011;19045;52.268;10.506;2022-07-19T08:47:53;5.53;;;1.98;;
32637;SDS011;19045;52.268;10.506;2022-07-19T08:50:21;8.50;;;2.47;;
32637;SDS011;19045;52.268;10.506;2022-07-19T08:52:48;6.10;;;2.60;;
32637;SDS011;19045;52.268;10.506;2022-07-19T08:55:15;10.02;;;2.80;;
32637;SDS011;19045;52.268;10.506;2022-07-19T08:57:41;7.03;;;2.15;;
32637;SDS011;19045;52.268;10.506;2022-07-19T09:00:23;6.45;;;2.13;;
32637;SDS011;19045;52.268;10.506;2022-07-19T09:02:53;7.97;;;2.15;;
32637;SDS011;19045;52.268;10.506;2022-07-19T09:05:21;11.77;;;2.65;;
32637;SDS011;19045;52.268;10.506;2022-07-19T09:08:05;4.63;;;2.17;;
32637;SDS011;19045;52.268;10.506;2022-07-19T09:10:35;7.15;;;2.45;;
32637;SDS011;19045;52.268;10.506;2022-07-19T09:13:05;8.48;;;2.75;;
32637;SDS011;19045;52.268;10.506;2022-07-19T09:15:45;4.88;;;2.40;;
32637;SDS011;19045;52.268;10.506;2022-07-19T09:18:17;7.53;;;2.67;;
32637;SDS011;19045;52.268;10.506;2022-07-19T09:20:45;5.43;;;1.80;;
32637;SDS011;19045;52.268;10.506;2022-07-19T09:23:13;5.43;;;2.35;;
32637;SDS011;19045;52.268;10.506;2022-07-19T09:25:41;5.00;;;1.90;;
32637;SDS011;19045;52.268;10.506;2022-07-19T09:28:34;9.40;;;1.88;;
32637;SDS011;19045;52.268;10.506;2022-07-19T09:31:33;3.35;;;1.67;;
32637;SDS011;19045;52.268;10.506;2022-07-19T09:34:01;2.80;;;2.00;;
32637;SDS011;19045;52.268;10.506;2022-07-19T09:36:28;3.35;;;1.70;;
32637;SDS011;19045;52.268;10.506;2022-07-19T09:38:57;4.43;;;1.90;;
32637;SDS011;19045;52.268;10.506;2022-07-19T09:41:24;5.60;;;2.05;;
32637;SDS011;19045;52.268;10.506;2022-07-19T09:43:51;5.25;;;1.90;;
32637;SDS011;19045;52.268;10.506;2022-07-19T09:46:32;4.63;;;2.22;;
32637;SDS011;19045;52.268;10.506;2022-07-19T09:49:05;3.30;;;1.80;;
32637;SDS011;19045;52.268;10.506;2022-07-19T09:51:34;4.20;;;2.08;;
32637;SDS011;19045;52.268;10.506;2022-07-19T09:54:02;3.85;;;2.13;;
32637;SDS011;19045;52.268;10.506;2022-07-19T09:56:30;3.67;;;2.10;;
32637;SDS011;19045;52.268;10.506;2022-07-19T09:58:57;4.60;;;1.83;;
32637;SDS011;19045;52.268;10.506;2022-07-19T10:01:25;1.92;;;1.40;;
32637;SDS011;19045;52.268;10.506;2022-07-19T10:03:54;1.77;;;1.35;;
32637;SDS011;19045;52.268;10.506;2022-07-19T10:06:24;2.33;;;1.35;;
32637;SDS011;19045;52.268;10.506;2022-07-19T10:08:52;2.58;;;1.02;;
32637;SDS011;19045;52.268;10.506;2022-07-19T10:11:19;7.13;;;1.35;;
32637;SDS011;19045;52.268;10.506;2022-07-19T10:13:46;2.03;;;0.90;;
32637;SDS011;19045;52.268;10.506;2022-07-19T10:16:15;2.85;;;1.15;;
32637;SDS011;19045;52.268;10.506;2022-07-19T10:18:52;3.35;;;1.20;;
32637;SDS011;19045;52.268;10.506;2022-07-19T10:21:28;1.58;;;1.02;;
32637;SDS011;19045;52.268;10.506;2022-07-19T10:23:56;2.53;;;1.02;;
32637;SDS011;19045;52.268;10.506;2022-07-19T10:26:34;5.75;;;0.88;;
32637;SDS011;19045;52.268;10.506;2022-07-19T10:29:08;2.25;;;0.80;;
32637;SDS011;19045;52.268;10.506;2022-07-19T10:31:36;2.08;;;1.27;;
32637;SDS011;19045;52.268;10.506;2022-07-19T10:34:04;8.80;;;1.45;;
32637;SDS011;19045;52.268;10.506;2022-07-19T10:39:23;1.35;;;0.98;;
32637;SDS011;19045;52.268;10.506;2022-07-19T10:42:12;4.15;;;1.15;;
32637;SDS011;19045;52.268;10.506;2022-07-19T10:50:41;1.77;;;0.98;;
32637;SDS011;19045;52.268;10.506;2022-07-19T10:56:28;3.30;;;1.05;;
32637;SDS011;19045;52.268;10.506;2022-07-19T10:59:09;2.38;;;1.00;;
32637;SDS011;19045;52.268;10.506;2022-07-19T11:01:38;1.38;;;0.60;;
32637;SDS011;19045;52.268;10.506;2022-07-19T11:07:17;1.67;;;0.95;;
32637;SDS011;19045;52.268;10.506;2022-07-19T11:09:49;1.70;;;1.00;;
32637;SDS011;19045;52.268;10.506;2022-07-19T11:12:24;5.22;;;1.60;;
32637;SDS011;19045;52.268;10.506;2022-07-19T11:14:53;1.85;;;0.80;;
32637;SDS011;19045;52.268;10.506;2022-07-19T11:17:20;3.67;;;0.93;;
32637;SDS011;19045;52.268;10.506;2022-07-19T11:19:57;2.95;;;0.93;;
32637;SDS011;19045;52.268;10.506;2022-07-19T11:22:24;4.10;;;0.90;;
32637;SDS011;19045;52.268;10.506;2022-07-19T11:24:53;3.67;;;1.45;;
32637;SDS011;19045;52.268;10.506;2022-07-19T11:27:20;2.20;;;1.17;;
32637;SDS011;19045;52.268;10.506;2022-07-19T11:29:52;3.75;;;1.48;;
32637;SDS011;19045;52.268;10.506;2022-07-19T11:32:22;1.42;;;1.05;;
32637;SDS011;19045;52.268;10.506;2022-07-19T11:34:56;4.88;;;1.23;;
32637;SDS011;19045;52.268;10.506;2022-07-19T11:37:40;3.35;;;1.52;;
32637;SDS011;19045;52.268;10.506;2022-07-19T11:40:11;2.88;;;1.60;;
32637;SDS011;19045;52.268;10.506;2022-07-19T11:42:38;3.65;;;1.58;;
32637;SDS011;19045;52.268;10.506;2022-07-19T11:45:10;4.70;;;1.70;;
32637;SDS011;19045;52.268;10.506;2022-07-19T11:47:40;3.40;;;1.52;;
32637;SDS011;19045;52.268;10.506;2022-07-19T11:50:08;10.00;;;1.60;;
32637;SDS011;19045;52.268;10.506;2022-07-19T11:52:46;2.00;;;1.30;;
32637;SDS011;19045;52.268;10.506;2022-07-19T11:55:16;4.10;;;1.20;;
32637;SDS011;19045;52.268;10.506;2022-07-19T11:57:44;6.35;;;1.73;;
32637;SDS011;19045;52.268;10.506;2022-07-19T12:00:11;8.52;;;2.25;;
32637;SDS011;19045;52.268;10.506;2022-07-19T12:02:55;4.50;;;1.27;;
32637;SDS011;19045;52.268;10.506;2022-07-19T12:05:25;2.53;;;1.50;;
32637;SDS011;19045;52.268;10.506;2022-07-19T12:07:53;10.57;;;2.03;;
32637;SDS011;19045;52.268;10.506;2022-07-19T12:10:34;3.92;;;1.58;;
32637;SDS011;19045;52.268;10.506;2022-07-19T12:13:06;3.50;;;1.65;;
32637;SDS011;19045;52.268;10.506;2022-07-19T12:15:44;4.88;;;1.95;;
32637;SDS011;19045;52.268;10.506;2022-07-19T12:18:13;7.85;;;2.47;;
32637;SDS011;19045;52.268;10.506;2022-07-19T12:20:42;6.72;;;1.90;;
32637;SDS011;19045;52.268;10.506;2022-07-19T12:23:12;6.13;;;2.10;;
32637;SDS011;19045;52.268;10.506;2022-07-19T12:25:45;5.93;;;2.13;;
32637;SDS011;19045;52.268;10.506;2022-07-19T12:28:15;4.85;;;2.00;;
32637;SDS011;19045;52.268;10.506;2022-07-19T12:30:59;5.22;;;2.15;;
32637;SDS011;19045;52.268;10.506;2022-07-19T12:33:26;4.07;;;1.75;;
32637;SDS011;19045;52.268;10.506;2022-07-19T12:35:55;7.63;;;1.98;;
32637;SDS011;19045;52.268;10.506;2022-07-19T12:38:27;8.05;;;1.67;;
32637;SDS011;19045;52.268;10.506;2022-07-19T12:41:08;7.38;;;1.80;;
32637;SDS011;19045;52.268;10.506;2022-07-19T12:43:35;7.38;;;1.70;;
32637;SDS011;19045;52.268;10.506;2022-07-19T12:46:02;5.22;;;1.95;;
32637;SDS011;19045;52.268;10.506;2022-07-19T12:48:29;10.60;;;2.00;;
32637;SDS011;19045;52.268;10.506;2022-07-19T12:50:56;12.40;;;2.20;;
32637;SDS011;19045;52.268;10.506;2022-07-19T12:53:23;5.35;;;1.80;;
32637;SDS011;19045;52.268;10.506;2022-07-19T12:55:50;5.05;;;1.83;;
32637;SDS011;19045;52.268;10.506;2022-07-19T12:58:24;3.45;;;1.75;;
32637;SDS011;19045;52.268;10.506;2022-07-19T13:01:08;6.80;;;2.05;;
32637;SDS011;19045;52.268;10.506;2022-07-19T13:03:37;4.38;;;1.63;;
32637;SDS011;19045;52.268;10.506;2022-07-19T13:06:04;5.78;;;1.60;;
32637;SDS011;19045;52.268;10.506;2022-07-19T13:08:32;6.30;;;1.90;;
32637;SDS011;19045;52.268;10.506;2022-07-19T13:11:02;8.18;;;2.28;;
32637;SDS011;19045;52.268;10.506;2022-07-19T13:13:30;4.40;;;1.70;;
32637;SDS011;19045;52.268;10.506;2022-07-19T13:15:56;5.70;;;1.85;;
32637;SDS011;19045;52.268;10.506;2022-07-19T13:18:23;7.07;;;1.77;;
32637;SDS011;19045;52.268;10.506;2022-07-19T13:20:50;3.20;;;1.50;;
32637;SDS011;19045;52.268;10.506;2022-07-19T13:23:17;6.97;;;2.05;;
32637;SDS011;19045;52.268;10.506;2022-07-19T13:25:46;7.65;;;1.65;;
32637;SDS011;19045;52.268;10.506;2022-07-19T13:28:12;4.57;;;1.65;;
32637;SDS011;19045;52.268;10.506;2022-07-19T13:30:43;4.07;;;1.73;;
32637;SDS011;19045;52.268;10.506;2022-07-19T13:33:13;4.85;;;1.60;;
32637;SDS011;19045;52.268;10.506;2022-07-19T13:35:39;3.65;;;1.52;;
32637;SDS011;19045;52.268;10.506;2022-07-19T13:38:06;6.00;;;1.95;;
32637;SDS011;19045;52.268;10.506;2022-07-19T13:40:33;6.05;;;1.55;;
32637;SDS011;19045;52.268;10.506;2022-07-19T13:43:02;6.13;;;1.60;;
32637;SDS011;19045;52.268;10.506;2022-07-19T13:45:29;10.45;;;2.13;;
32637;SDS011;19045;52.268;10.506;2022-07-19T13:47:57;2.80;;;1.60;;
32637;SDS011;19045;52.268;10.506;2022-07-19T13:50:23;6.05;;;1.73;;
32637;SDS011;19045;52.268;10.506;2022-07-19T13:52:53;2.78;;;1.60;;
32637;SDS011;19045;52.268;10.506;2022-07-19T13:55:19;6.10;;;1.70;;
32637;SDS011;19045;52.268;10.506;2022-07-19T13:57:48;2.55;;;1.40;;
32637;SDS011;19045;52.268;10.506;2022-07-19T14:00:15;3.33;;;1.52;;
32637;SDS011;19045;52.268;10.506;2022-07-19T14:02:42;4.53;;;1.67;;
32637;SDS011;19045;52.268;10.506;2022-07-19T14:05:11;3.13;;;1.70;;
32637;SDS011;19045;52.268;10.506;2022-07-19T14:07:38;3.05;;;1.52;;
32637;SDS011;19045;52.268;10.506;2022-07-19T14:10:05;4.20;;;1.30;;
32637;SDS011;19045;52.268;10.506;2022-07-19T14:12:33;2.58;;;1.23;;
32637;SDS011;19045;52.268;10.506;2022-07-19T14:15:00;5.07;;;1.65;;
32637;SDS011;19045;52.268;10.506;2022-07-19T14:17:26;6.45;;;1.52;;
32637;SDS011;19045;52.268;10.506;2022-07-19T14:19:53;3.33;;;1.70;;
32637;SDS011;19045;52.268;10.506;2022-07-19T14:22:21;1.60;;;1.30;;
32637;SDS011;19045;52.268;10.506;2022-07-19T14:24:48;2.85;;;1.35;;
32637;SDS011;19045;52.268;10.506;2022-07-19T14:27:14;4.68;;;1.50;;
32637;SDS011;19045;52.268;10.506;2022-07-19T14:29:42;5.05;;;1.33;;
32637;SDS011;19045;52.268;10.506;2022-07-19T14:32:08;4.43;;;1.55;;
32637;SDS011;19045;52.268;10.506;2022-07-19T14:34:35;3.17;;;1.40;;
32637;SDS011;19045;52.268;10.506;2022-07-19T14:37:02;5.00;;;1.35;;
32637;SDS011;19045;52.268;10.506;2022-07-19T14:39:31;3.22;;;1.63;;
32637;SDS011;19045;52.268;10.506;2022-07-19T14:41:57;3.00;;;1.10;;
32637;SDS011;19045;52.268;10.506;2022-07-19T14:44:25;3.05;;;1.73;;
32637;SDS011;19045;52.268;10.506;2022-07-19T14:46:52;2.20;;;1.33;;
32637;SDS011;19045;52.268;10.506;2022-07-19T14:49:20;5.47;;;1.30;;
32637;SDS011;19045;52.268;10.506;2022-07-19T14:51:46;2.60;;;1.13;;
32637;SDS011;19045;52.268;10.506;2022-07-19T14:54:13;4.07;;;1.30;;